Time;durP1;ratioP1;P1;durP2;ratioP2;P2;SDS_P1;SDS_P2;PMS_P1;PMS_P2;Temp;Humidity;BMP_temperature;BMP_pressure;BME280_temperature;BME280_humidity;BME280_pressure;Samples;Min_cycle;Max_cycle;Signal;HPM_P1;HPM_P2
2023/11/11 00:00:37;;;;;;;1.55;1.02;;;8.10;99.90;;;;;;4991661;28;20091;-59
2023/11/11 00:03:05;;;;;;;3.35;0.90;;;8.10;99.90;;;;;;4975211;28;20023;-60
2023/11/11 00:05:31;;;;;;;3.70;1.25;;;8.20;99.90;;;;;;4972393;28;20096;-57
2023/11/11 00:07:57;;;;;;;3.90;1.45;;;8.20;99.90;;;;;;4983068;28;20022;-49
2023/11/11 00:10:22;;;;;;;5.45;1.23;;;8.20;99.90;;;;;;4991745;28;20516;-50
2023/11/11 00:12:48;;;;;;;2.97;1.13;;;8.10;99.90;;;;;;4991599;28;20083;-45
2023/11/11 00:15:14;;;;;;;3.08;1.42;;;8.10;99.90;;;;;;4991737;28;20041;-53
2023/11/11 00:17:40;;;;;;;5.05;1.80;;;8.20;99.90;;;;;;4983958;28;20041;-42
2023/11/11 00:20:12;;;;;;;5.25;1.70;;;8.20;99.90;;;;;;4988831;28;20070;-45
2023/11/11 00:22:44;;;;;;;2.55;1.77;;;8.20;99.90;;;;;;4989522;28;20604;-48
2023/11/11 00:25:11;;;;;;;3.50;1.45;;;8.20;99.90;;;;;;4988953;28;20064;-45
2023/11/11 00:27:37;;;;;;;7.25;2.35;;;8.20;99.90;;;;;;4989233;28;20473;-47
2023/11/11 00:30:07;;;;;;;1.45;1.35;;;8.20;99.90;;;;;;4988558;28;20194;-47
2023/11/11 00:32:33;;;;;;;11.27;1.70;;;8.20;99.90;;;;;;4988840;28;20478;-43
2023/11/11 00:34:59;;;;;;;5.82;1.50;;;8.10;99.90;;;;;;4988257;28;20473;-43
2023/11/11 00:37:25;;;;;;;8.48;2.38;;;8.20;99.90;;;;;;4988679;28;20723;-46
2023/11/11 00:39:50;;;;;;;3.75;1.58;;;8.10;99.90;;;;;;4971026;28;20027;-44
2023/11/11 00:42:17;;;;;;;2.00;1.30;;;8.10;99.90;;;;;;4989763;28;20084;-43
2023/11/11 00:44:44;;;;;;;2.92;1.55;;;8.10;99.90;;;;;;4989639;28;20033;-45
2023/11/11 00:47:13;;;;;;;6.18;1.70;;;8.10;99.90;;;;;;4973747;28;20456;-48
2023/11/11 00:49:39;;;;;;;5.07;1.88;;;8.10;99.90;;;;;;4991429;28;20029;-44
2023/11/11 00:52:04;;;;;;;2.15;1.50;;;8.10;99.90;;;;;;4991369;28;20031;-49
2023/11/11 00:54:30;;;;;;;3.05;2.10;;;8.10;99.90;;;;;;4991192;28;20110;-48
2023/11/11 00:56:56;;;;;;;2.60;2.05;;;8.10;99.90;;;;;;4991997;28;20125;-45
2023/11/11 00:59:22;;;;;;;6.60;1.70;;;8.10;99.90;;;;;;4991474;28;20026;-45
2023/11/11 01:01:48;;;;;;;3.00;1.75;;;8.10;99.90;;;;;;4991033;28;20536;-45
2023/11/11 01:04:13;;;;;;;6.13;2.08;;;8.10;99.90;;;;;;4991157;28;20109;-47
2023/11/11 01:06:39;;;;;;;6.90;2.60;;;8.20;99.90;;;;;;4991289;28;20023;-45
2023/11/11 01:09:06;;;;;;;37.38;19.25;;;8.10;99.90;;;;;;4991220;28;20110;-45
2023/11/11 01:11:32;;;;;;;6.20;2.38;;;8.20;99.90;;;;;;4991271;28;20022;-47
2023/11/11 01:13:58;;;;;;;4.63;1.88;;;8.30;99.90;;;;;;4991129;28;20031;-46
2023/11/11 01:16:24;;;;;;;3.58;2.65;;;8.30;99.90;;;;;;4990971;28;20095;-47
2023/11/11 01:18:50;;;;;;;4.40;1.60;;;8.30;99.90;;;;;;4991307;28;20113;-46
2023/11/11 01:21:15;;;;;;;4.80;1.60;;;8.30;99.90;;;;;;4990839;28;20027;-46
2023/11/11 01:23:42;;;;;;;1.70;1.35;;;8.40;99.90;;;;;;4990800;28;20116;-47
2023/11/11 01:26:07;;;;;;;6.60;1.95;;;8.30;99.90;;;;;;4990515;28;20409;-45
2023/11/11 01:28:33;;;;;;;2.42;1.33;;;8.30;99.90;;;;;;4973363;28;20075;-48
2023/11/11 01:30:58;;;;;;;6.90;2.78;;;8.30;99.90;;;;;;4990728;28;20030;-46
2023/11/11 01:33:24;;;;;;;7.72;1.33;;;8.30;99.90;;;;;;4990753;28;20026;-47
2023/11/11 01:35:50;;;;;;;7.07;2.30;;;8.30;99.90;;;;;;4990516;28;20030;-50
2023/11/11 01:38:17;;;;;;;1.85;1.40;;;8.30;99.90;;;;;;4990584;28;20023;-47
2023/11/11 01:40:42;;;;;;;4.72;1.58;;;8.30;99.90;;;;;;4990327;28;20031;-46
2023/11/11 01:43:12;;;;;;;4.80;1.70;;;8.40;99.90;;;;;;4990309;28;20072;-46
2023/11/11 01:45:38;;;;;;;4.25;1.35;;;8.40;99.90;;;;;;4990503;28;20022;-45
2023/11/11 01:48:07;;;;;;;2.97;1.25;;;8.40;99.90;;;;;;4989495;28;20019;-45
2023/11/11 01:50:33;;;;;;;3.67;1.45;;;8.40;99.90;;;;;;4990409;28;20030;-47
2023/11/11 01:52:59;;;;;;;5.78;1.45;;;8.30;99.90;;;;;;4990639;28;20061;-45
2023/11/11 01:55:25;;;;;;;1.95;1.00;;;8.10;99.90;;;;;;4990352;28;20497;-47
2023/11/11 01:57:50;;;;;;;3.15;0.82;;;8.10;99.90;;;;;;4990387;28;20064;-47
2023/11/11 02:00:18;;;;;;;0.50;0.50;;;7.80;99.90;;;;;;4990017;28;20061;-48
2023/11/11 02:02:43;;;;;;;1.52;0.40;;;7.80;99.90;;;;;;4990382;28;20490;-45
2023/11/11 02:05:09;;;;;;;2.13;0.30;;;7.70;99.90;;;;;;4990300;28;20034;-46
2023/11/11 02:07:35;;;;;;;0.10;0.10;;;7.60;99.90;;;;;;4990116;28;20076;-46
2023/11/11 02:10:02;;;;;;;0.30;0.30;;;7.50;99.90;;;;;;4990212;28;20026;-45
2023/11/11 02:12:29;;;;;;;0.20;0.20;;;7.40;99.90;;;;;;4990100;28;20025;-45
2023/11/11 02:14:55;;;;;;;0.22;0.22;;;7.40;99.90;;;;;;4990035;28;20058;-48
2023/11/11 02:17:20;;;;;;;0.30;0.30;;;7.30;99.90;;;;;;4989975;28;20026;-45
2023/11/11 02:19:46;;;;;;;0.50;0.50;;;7.30;99.90;;;;;;4989952;28;20026;-46
2023/11/11 02:22:13;;;;;;;0.30;0.30;;;7.30;99.90;;;;;;4989926;28;20023;-45
2023/11/11 02:24:40;;;;;;;0.30;0.30;;;7.20;99.90;;;;;;4990051;28;20048;-48
2023/11/11 02:27:06;;;;;;;0.35;0.35;;;7.60;99.90;;;;;;4990015;28;20022;-45
2023/11/11 02:29:31;;;;;;;0.25;0.25;;;7.20;99.90;;;;;;4989998;28;20019;-45
2023/11/11 02:31:57;;;;;;;0.35;0.35;;;7.20;99.90;;;;;;4989764;28;20042;-45
2023/11/11 02:34:23;;;;;;;0.30;0.30;;;7.20;99.90;;;;;;4989795;28;20036;-47
2023/11/11 02:36:48;;;;;;;0.32;0.32;;;7.10;99.90;;;;;;4989726;28;20394;-44
2023/11/11 02:39:14;;;;;;;0.38;0.38;;;7.10;99.90;;;;;;4989857;28;20030;-48
2023/11/11 02:41:40;;;;;;;1.08;0.57;;;7.10;99.90;;;;;;4989599;28;20088;-45
2023/11/11 02:44:06;;;;;;;10.23;0.40;;;7.10;99.90;;;;;;4989553;28;20041;-45
2023/11/11 02:46:32;;;;;;;0.30;0.30;;;7.10;99.90;;;;;;4989602;28;20474;-46
2023/11/11 02:48:57;;;;;;;0.73;0.52;;;7.00;99.90;;;;;;4989695;28;20037;-44
2023/11/11 02:51:23;;;;;;;0.30;0.30;;;7.00;99.90;;;;;;4972251;28;20026;-45
2023/11/11 02:53:48;;;;;;;0.30;0.30;;;7.00;99.90;;;;;;4989748;28;20397;-48
2023/11/11 02:56:14;;;;;;;0.32;0.32;;;7.00;99.90;;;;;;4989811;28;20044;-46
2023/11/11 02:58:39;;;;;;;0.40;0.40;;;7.00;99.90;;;;;;4989252;28;20032;-44
2023/11/11 03:01:05;;;;;;;0.30;0.30;;;7.10;99.90;;;;;;4989287;28;20037;-46
2023/11/11 03:03:31;;;;;;;0.30;0.30;;;7.10;99.90;;;;;;4989323;28;20026;-49
2023/11/11 03:05:56;;;;;;;0.50;0.38;;;7.10;99.90;;;;;;4989385;28;20029;-47
2023/11/11 03:08:22;;;;;;;0.30;0.30;;;7.10;99.90;;;;;;4989388;28;20018;-45
2023/11/11 03:10:47;;;;;;;5.38;0.40;;;7.10;99.90;;;;;;4989459;28;20095;-46
2023/11/11 03:13:13;;;;;;;0.32;0.32;;;7.10;99.90;;;;;;4989323;28;20030;-48
2023/11/11 03:15:39;;;;;;;0.30;0.30;;;7.10;99.90;;;;;;4989197;28;20486;-47
2023/11/11 03:18:04;;;;;;;0.30;0.30;;;7.10;99.90;;;;;;4989173;28;20030;-48
2023/11/11 03:20:30;;;;;;;2.25;0.45;;;7.10;99.90;;;;;;4988965;28;20057;-47
2023/11/11 03:22:56;;;;;;;0.40;0.40;;;7.10;99.90;;;;;;4989606;28;20393;-48
2023/11/11 03:25:21;;;;;;;0.32;0.30;;;7.00;99.90;;;;;;4971525;28;20034;-46
2023/11/11 03:27:47;;;;;;;0.32;0.32;;;7.00;99.90;;;;;;4989107;28;20027;-46
2023/11/11 03:30:13;;;;;;;0.47;0.47;;;7.00;99.90;;;;;;4988989;28;20144;-46
2023/11/11 03:32:38;;;;;;;0.50;0.47;;;7.00;99.90;;;;;;4989028;28;20019;-46
2023/11/11 03:35:04;;;;;;;1.13;1.05;;;7.10;99.90;;;;;;4989182;28;20022;-47
2023/11/11 03:37:30;;;;;;;0.75;0.40;;;7.10;99.90;;;;;;4988890;28;20105;-46
2023/11/11 03:39:55;;;;;;;0.47;0.47;;;7.10;99.90;;;;;;4988831;28;20065;-47
2023/11/11 03:42:21;;;;;;;1.77;0.52;;;7.20;99.90;;;;;;4988872;28;20062;-45
2023/11/11 03:44:46;;;;;;;0.40;0.40;;;7.20;99.90;;;;;;4988492;28;20478;-48
2023/11/11 03:47:12;;;;;;;0.55;0.55;;;7.20;99.90;;;;;;4988871;28;20022;-44
2023/11/11 03:49:38;;;;;;;0.70;0.70;;;7.20;99.90;;;;;;4988963;28;20720;-47
2023/11/11 03:52:04;;;;;;;0.50;0.50;;;7.20;99.90;;;;;;4988656;28;20076;-45
2023/11/11 03:54:30;;;;;;;0.75;0.47;;;7.20;99.90;;;;;;4988710;28;20030;-45
2023/11/11 03:56:56;;;;;;;2.55;0.70;;;7.20;99.90;;;;;;4988663;28;20046;-46
2023/11/11 03:59:21;;;;;;;0.60;0.60;;;7.30;99.90;;;;;;4988629;28;20444;-44
2023/11/11 04:01:47;;;;;;;1.13;0.80;;;7.30;99.90;;;;;;4988493;28;20429;-47
2023/11/11 04:04:12;;;;;;;1.25;0.57;;;7.30;99.90;;;;;;4989199;28;20409;-45
2023/11/11 04:06:39;;;;;;;3.72;0.65;;;7.30;99.90;;;;;;4988838;28;20054;-47
2023/11/11 04:09:05;;;;;;;0.88;0.88;;;7.40;99.90;;;;;;4988813;28;20125;-48
2023/11/11 04:11:30;;;;;;;0.98;0.90;;;7.40;99.90;;;;;;4991028;28;20102;-47
2023/11/11 04:13:58;;;;;;;0.73;0.73;;;7.40;99.90;;;;;;4992134;28;20026;-46
2023/11/11 04:16:26;;;;;;;1.17;1.08;;;7.30;99.90;;;;;;4991917;28;20027;-45
2023/11/11 04:18:52;;;;;;;1.40;1.00;;;7.40;99.90;;;;;;4992147;28;20026;-45
2023/11/11 04:21:18;;;;;;;0.90;0.90;;;7.30;99.90;;;;;;4991753;28;20025;-49
2023/11/11 04:23:43;;;;;;;0.88;0.88;;;7.40;99.90;;;;;;4992016;28;20482;-49
2023/11/11 04:26:10;;;;;;;1.25;1.10;;;7.40;99.90;;;;;;4991761;28;20026;-46
2023/11/11 04:28:37;;;;;;;0.90;0.90;;;7.50;99.90;;;;;;4991948;28;20358;-45
2023/11/11 04:31:02;;;;;;;1.10;1.10;;;7.50;99.90;;;;;;4991992;28;20018;-45
2023/11/11 04:33:28;;;;;;;1.27;1.00;;;7.50;99.90;;;;;;4992048;28;20089;-45
2023/11/11 04:35:54;;;;;;;1.00;1.00;;;7.50;99.90;;;;;;4991781;28;20473;-45
2023/11/11 04:38:22;;;;;;;1.33;1.10;;;7.40;99.90;;;;;;4992080;28;20193;-45
2023/11/11 04:40:49;;;;;;;1.05;1.05;;;7.40;99.90;;;;;;4992128;28;20075;-46
2023/11/11 04:43:15;;;;;;;1.17;1.10;;;7.40;99.90;;;;;;4991425;28;20034;-45
2023/11/11 04:45:41;;;;;;;2.22;0.98;;;7.30;99.90;;;;;;4991679;28;20034;-45
2023/11/11 04:48:06;;;;;;;1.65;1.00;;;7.30;99.90;;;;;;4991700;28;20101;-48
2023/11/11 04:50:32;;;;;;;0.95;0.95;;;7.30;99.90;;;;;;4991380;28;20025;-45
2023/11/11 04:52:58;;;;;;;1.55;0.93;;;7.30;99.90;;;;;;4991427;28;20018;-47
2023/11/11 04:55:23;;;;;;;1.20;1.10;;;7.20;99.90;;;;;;4991355;28;20034;-49
2023/11/11 04:57:50;;;;;;;1.15;1.15;;;7.20;99.90;;;;;;4991631;28;20034;-45
2023/11/11 05:00:17;;;;;;;1.08;1.08;;;7.20;99.90;;;;;;4991152;28;20505;-48
2023/11/11 05:02:45;;;;;;;3.20;1.33;;;7.20;99.90;;;;;;4991451;28;20030;-49
2023/11/11 05:05:11;;;;;;;1.20;1.20;;;7.20;99.90;;;;;;4991454;28;20057;-43
2023/11/11 05:07:40;;;;;;;2.75;1.38;;;7.20;99.90;;;;;;4991564;28;20061;-45
2023/11/11 05:10:09;;;;;;;1.25;1.25;;;7.20;99.90;;;;;;4991270;28;20110;-46
2023/11/11 05:12:37;;;;;;;4.35;1.15;;;7.20;99.90;;;;;;4991044;28;20439;-46
2023/11/11 05:15:12;;;;;;;1.05;1.02;;;7.20;99.90;;;;;;4991167;28;20052;-43
2023/11/11 05:17:37;;;;;;;3.22;1.45;;;7.20;99.90;;;;;;4991036;28;20025;-47
2023/11/11 05:20:03;;;;;;;2.35;1.20;;;7.20;99.90;;;;;;4990909;28;20031;-45
2023/11/11 05:22:29;;;;;;;1.95;1.85;;;7.20;99.90;;;;;;4991357;28;20031;-44
2023/11/11 05:24:55;;;;;;;1.42;1.33;;;7.20;99.90;;;;;;4991177;28;20391;-46
2023/11/11 05:27:21;;;;;;;1.42;1.33;;;7.20;99.90;;;;;;4991318;28;20038;-46
2023/11/11 05:29:46;;;;;;;2.50;1.30;;;7.30;99.90;;;;;;4991049;28;20018;-44
2023/11/11 05:32:12;;;;;;;2.25;1.63;;;7.30;99.90;;;;;;4991057;28;20022;-47
2023/11/11 05:34:38;;;;;;;1.30;1.20;;;7.30;99.90;;;;;;4990879;28;20482;-45
2023/11/11 05:37:03;;;;;;;1.23;1.17;;;7.30;99.90;;;;;;4991186;28;20087;-45
2023/11/11 05:39:29;;;;;;;1.25;1.25;;;7.30;99.90;;;;;;4990879;28;20109;-45
2023/11/11 05:41:54;;;;;;;4.90;1.63;;;7.30;99.90;;;;;;4990426;28;20390;-45
2023/11/11 05:44:21;;;;;;;3.85;1.40;;;7.30;99.90;;;;;;4990488;28;20018;-46
2023/11/11 05:46:46;;;;;;;2.20;1.30;;;7.30;99.90;;;;;;4990593;28;20050;-47
2023/11/11 05:49:12;;;;;;;2.80;1.63;;;7.20;99.90;;;;;;4990805;28;20065;-45
2023/11/11 05:51:37;;;;;;;1.40;1.27;;;7.30;99.90;;;;;;4990466;28;20073;-49
2023/11/11 05:54:03;;;;;;;4.32;1.25;;;7.30;99.90;;;;;;4990659;28;20026;-47
2023/11/11 05:56:29;;;;;;;1.58;1.48;;;7.20;99.90;;;;;;4990421;28;20110;-47
2023/11/11 05:58:58;;;;;;;1.77;1.25;;;7.20;99.90;;;;;;4990594;28;20026;-48
2023/11/11 06:01:24;;;;;;;3.45;2.13;;;7.20;99.90;;;;;;4990157;28;20022;-47
2023/11/11 06:03:50;;;;;;;3.17;1.38;;;7.30;99.90;;;;;;4990409;28;20026;-45
2023/11/11 06:06:15;;;;;;;1.58;1.10;;;7.30;99.90;;;;;;4990437;28;20490;-43
2023/11/11 06:08:41;;;;;;;1.35;1.30;;;7.40;99.90;;;;;;4990553;28;20033;-47
2023/11/11 06:11:06;;;;;;;2.00;1.42;;;7.40;99.90;;;;;;4990284;28;20308;-45
2023/11/11 06:13:32;;;;;;;2.40;2.00;;;7.40;99.90;;;;;;4990342;28;20069;-42
2023/11/11 06:15:57;;;;;;;4.10;1.40;;;7.40;99.90;;;;;;4990014;28;20033;-45
2023/11/11 06:18:23;;;;;;;2.78;1.20;;;7.30;99.90;;;;;;4990160;28;20079;-48
2023/11/11 06:20:49;;;;;;;3.58;1.80;;;7.40;99.90;;;;;;4989893;28;20030;-45
2023/11/11 06:23:14;;;;;;;3.97;1.42;;;7.30;99.90;;;;;;4990509;28;20086;-44
2023/11/11 06:25:40;;;;;;;1.40;1.30;;;7.30;99.90;;;;;;4990052;28;20034;-48
2023/11/11 06:28:05;;;;;;;1.92;1.50;;;7.40;99.90;;;;;;4990167;28;20025;-48
2023/11/11 06:30:32;;;;;;;1.23;1.15;;;7.30;99.90;;;;;;4972383;28;20117;-45
2023/11/11 06:32:59;;;;;;;1.45;1.10;;;7.30;99.90;;;;;;4989502;28;20026;-46
2023/11/11 06:35:26;;;;;;;2.63;1.10;;;7.40;99.90;;;;;;4990223;28;20444;-46
2023/11/11 06:37:52;;;;;;;3.67;1.65;;;7.50;99.90;;;;;;4989902;28;20023;-44
2023/11/11 06:40:17;;;;;;;2.90;1.65;;;7.50;99.90;;;;;;4989497;28;20034;-44
2023/11/11 06:42:43;;;;;;;1.10;1.10;;;7.70;99.90;;;;;;4989589;28;20039;-44
2023/11/11 06:45:14;;;;;;;2.63;1.20;;;7.80;99.90;;;;;;4989888;28;20031;-46
2023/11/11 06:47:40;;;;;;;1.45;1.17;;;7.70;99.90;;;;;;4989911;28;20018;-45
2023/11/11 06:50:07;;;;;;;3.35;1.58;;;7.80;99.90;;;;;;4989680;28;20262;-47
2023/11/11 06:52:35;;;;;;;1.35;1.25;;;7.80;99.90;;;;;;4989898;28;20532;-47
2023/11/11 06:55:04;;;;;;;1.90;1.80;;;7.90;99.90;;;;;;4990079;28;20101;-46
2023/11/11 06:57:29;;;;;;;1.92;1.27;;;7.90;99.90;;;;;;4989586;28;20456;-45
2023/11/11 06:59:55;;;;;;;1.85;1.08;;;7.90;99.90;;;;;;4989494;28;20114;-45
2023/11/11 07:02:22;;;;;;;6.32;2.75;;;8.00;99.90;;;;;;4989394;28;20030;-47
2023/11/11 07:04:55;;;;;;;2.70;1.23;;;7.90;99.90;;;;;;4989641;28;20018;-45
2023/11/11 07:07:24;;;;;;;2.28;1.63;;;8.00;99.90;;;;;;5003074;28;20118;-45
2023/11/11 07:09:51;;;;;;;1.63;1.02;;;8.00;99.90;;;;;;4993066;28;20029;-44
2023/11/11 07:12:19;;;;;;;1.65;1.00;;;8.00;99.90;;;;;;4990000;28;20367;-47
2023/11/11 07:14:45;;;;;;;0.90;0.90;;;8.00;99.90;;;;;;4990041;28;20405;-45
2023/11/11 07:17:11;;;;;;;3.70;1.35;;;8.00;99.90;;;;;;4989584;28;20037;-45
2023/11/11 07:19:37;;;;;;;2.25;1.13;;;8.00;99.90;;;;;;4989418;28;20535;-45
2023/11/11 07:22:03;;;;;;;1.00;1.00;;;7.90;99.90;;;;;;4989110;28;20042;-45
2023/11/11 07:24:28;;;;;;;1.15;0.75;;;8.00;99.90;;;;;;4989096;28;20084;-45
2023/11/11 07:26:54;;;;;;;3.00;1.15;;;8.00;99.90;;;;;;4989334;28;20105;-46
2023/11/11 07:29:20;;;;;;;2.35;0.90;;;8.10;99.90;;;;;;4989533;28;20101;-46
2023/11/11 07:31:46;;;;;;;4.30;1.20;;;8.10;99.90;;;;;;4989482;28;20030;-47
2023/11/11 07:34:12;;;;;;;1.58;1.05;;;8.10;99.90;;;;;;4989516;28;20026;-47
2023/11/11 07:36:38;;;;;;;5.13;1.00;;;8.10;99.90;;;;;;4988928;28;20099;-48
2023/11/11 07:39:06;;;;;;;5.25;1.50;;;8.20;99.90;;;;;;4989277;28;20031;-44
2023/11/11 07:41:32;;;;;;;5.50;1.58;;;8.20;99.90;;;;;;4989012;28;20023;-48
2023/11/11 07:44:04;;;;;;;2.20;1.30;;;8.20;99.90;;;;;;4988963;28;20030;-45
2023/11/11 07:46:30;;;;;;;1.80;1.00;;;8.20;99.90;;;;;;4991658;28;20023;-48
2023/11/11 07:48:55;;;;;;;1.10;1.10;;;8.20;99.90;;;;;;4992560;28;20497;-45
2023/11/11 07:51:24;;;;;;;3.90;1.30;;;8.30;99.90;;;;;;4992367;28;20083;-47
2023/11/11 07:53:49;;;;;;;2.15;1.45;;;8.20;99.90;;;;;;4992426;28;20117;-45
2023/11/11 07:56:15;;;;;;;2.08;1.73;;;8.30;99.90;;;;;;4974939;28;20243;-51
2023/11/11 07:58:41;;;;;;;5.07;1.80;;;8.30;99.90;;;;;;4992406;28;20394;-45
2023/11/11 08:01:06;;;;;;;1.85;1.20;;;8.30;99.90;;;;;;4992199;28;20027;-45
2023/11/11 08:03:33;;;;;;;3.75;1.58;;;8.30;99.90;;;;;;4992235;28;20034;-45
2023/11/11 08:05:59;;;;;;;2.70;1.67;;;8.10;99.90;;;;;;4992164;28;20027;-46
2023/11/11 08:08:26;;;;;;;2.55;1.95;;;8.10;99.90;;;;;;4992255;28;20027;-44
2023/11/11 08:10:51;;;;;;;1.75;1.65;;;8.10;99.90;;;;;;4992050;28;20478;-46
2023/11/11 08:13:17;;;;;;;4.25;2.03;;;8.00;99.90;;;;;;4992397;28;20026;-45
2023/11/11 08:15:42;;;;;;;3.58;1.52;;;8.00;99.90;;;;;;4991996;28;20031;-46
2023/11/11 08:18:09;;;;;;;3.33;2.03;;;8.10;99.90;;;;;;4992366;28;20382;-47
2023/11/11 08:20:34;;;;;;;3.97;2.05;;;8.10;99.90;;;;;;4991705;28;20065;-48
2023/11/11 08:23:00;;;;;;;3.45;1.92;;;8.20;99.90;;;;;;4992061;28;20441;-46
2023/11/11 08:25:26;;;;;;;5.43;2.97;;;8.20;99.90;;;;;;4992073;28;20031;-45
2023/11/11 08:27:52;;;;;;;3.65;2.25;;;8.20;99.90;;;;;;4992000;28;20311;-46
2023/11/11 08:30:18;;;;;;;3.58;1.85;;;8.30;99.90;;;;;;4991772;28;20097;-46
2023/11/11 08:32:43;;;;;;;5.40;2.35;;;8.30;99.90;;;;;;4992163;28;20528;-45
2023/11/11 08:35:14;;;;;;;3.10;2.10;;;8.40;99.90;;;;;;4991872;28;20110;-47
2023/11/11 08:37:40;;;;;;;2.35;1.80;;;8.50;99.90;;;;;;4991871;28;20027;-45
2023/11/11 08:40:06;;;;;;;5.20;2.15;;;8.70;99.90;;;;;;4991804;28;20539;-44
2023/11/11 08:42:32;;;;;;;2.55;2.13;;;8.80;99.90;;;;;;4991784;28;20374;-47
2023/11/11 08:44:58;;;;;;;4.05;2.08;;;8.90;99.90;;;;;;4992197;28;20014;-45
2023/11/11 08:47:25;;;;;;;6.38;2.17;;;9.00;99.90;;;;;;4991903;28;20021;-48
2023/11/11 08:49:51;;;;;;;2.67;1.60;;;9.10;99.90;;;;;;4987593;28;20023;-47
2023/11/11 08:52:16;;;;;;;2.60;1.85;;;9.10;99.90;;;;;;5034496;28;20033;-47
2023/11/11 08:54:42;;;;;;;5.88;2.25;;;9.20;99.90;;;;;;5074030;28;20103;-45
2023/11/11 08:57:08;;;;;;;2.53;1.90;;;9.20;99.90;;;;;;4980846;28;20064;-49
2023/11/11 08:59:34;;;;;;;2.80;2.15;;;9.20;99.90;;;;;;5047557;28;20142;-44
2023/11/11 09:02:00;;;;;;;4.18;2.53;;;9.20;99.90;;;;;;4957992;28;20031;-44
2023/11/11 09:04:25;;;;;;;3.88;2.10;;;9.10;99.90;;;;;;4979978;28;20037;-49
2023/11/11 09:06:51;;;;;;;5.90;2.58;;;9.00;99.90;;;;;;5062849;28;20019;-48
2023/11/11 09:09:17;;;;;;;4.38;1.73;;;9.00;99.90;;;;;;5051152;28;20463;-48
2023/11/11 09:11:43;;;;;;;1.80;1.70;;;9.00;99.90;;;;;;4971592;28;20088;-48
2023/11/11 09:14:09;;;;;;;3.35;1.77;;;9.10;99.90;;;;;;4972171;28;20109;-47
2023/11/11 09:16:35;;;;;;;2.83;1.50;;;9.20;99.90;;;;;;4971625;28;20122;-48
2023/11/11 09:19:03;;;;;;;1.80;1.70;;;9.30;99.90;;;;;;4974740;28;20029;-51
2023/11/11 09:21:29;;;;;;;1.55;1.45;;;9.30;99.90;;;;;;4984937;28;20026;-51
2023/11/11 09:23:54;;;;;;;5.95;1.60;;;9.30;99.90;;;;;;5020767;28;20023;-47
2023/11/11 09:26:21;;;;;;;2.20;1.80;;;9.40;99.90;;;;;;5072960;28;20033;-49
2023/11/11 09:28:48;;;;;;;3.47;1.45;;;9.30;99.90;;;;;;4985380;28;20494;-51
2023/11/11 09:31:13;;;;;;;5.13;1.40;;;9.40;99.90;;;;;;4990297;28;20031;-46
2023/11/11 09:33:39;;;;;;;8.23;2.42;;;9.40;99.90;;;;;;4981302;28;20042;-47
2023/11/11 09:36:06;;;;;;;5.25;1.40;;;9.40;99.90;;;;;;4972028;28;20035;-48
2023/11/11 09:38:32;;;;;;;3.03;1.60;;;9.30;99.90;;;;;;4977387;28;20053;-48
2023/11/11 09:40:58;;;;;;;2.05;1.25;;;9.20;99.90;;;;;;4988894;28;20111;-47
2023/11/11 09:43:24;;;;;;;1.48;1.08;;;9.20;99.90;;;;;;4982456;28;20500;-51
2023/11/11 09:45:51;;;;;;;4.30;1.30;;;9.20;99.90;;;;;;4986672;28;20058;-47
2023/11/11 09:48:17;;;;;;;6.57;1.70;;;9.10;99.90;;;;;;4985875;28;20028;-47
2023/11/11 09:50:44;;;;;;;2.78;1.70;;;9.10;99.90;;;;;;4990471;28;20113;-51
2023/11/11 09:53:12;;;;;;;1.98;1.73;;;9.00;99.90;;;;;;4990412;28;20440;-47
2023/11/11 09:55:39;;;;;;;3.75;1.38;;;9.00;99.90;;;;;;4990203;28;20501;-50
2023/11/11 09:58:06;;;;;;;8.32;2.33;;;9.00;99.90;;;;;;4990285;28;20678;-49
2023/11/11 10:00:32;;;;;;;10.43;1.20;;;9.00;99.90;;;;;;4990008;28;20031;-52
2023/11/11 10:02:57;;;;;;;1.88;1.00;;;9.00;99.90;;;;;;4990226;28;20029;-54
2023/11/11 10:05:23;;;;;;;2.72;1.50;;;9.00;99.90;;;;;;4990285;28;20027;-50
2023/11/11 10:07:49;;;;;;;2.58;1.75;;;9.10;99.90;;;;;;4989531;28;20105;-49
2023/11/11 10:10:15;;;;;;;4.97;1.85;;;9.10;99.90;;;;;;4990075;28;20018;-50
2023/11/11 10:12:41;;;;;;;3.78;1.98;;;9.10;99.90;;;;;;4990796;28;20079;-47
2023/11/11 10:15:10;;;;;;;2.38;1.58;;;9.10;99.90;;;;;;4990300;28;20493;-49
2023/11/11 10:17:38;;;;;;;3.65;1.67;;;9.10;99.90;;;;;;4984998;28;20041;-49
2023/11/11 10:20:17;;;;;;;2.67;1.40;;;9.00;99.90;;;;;;4983033;28;20038;-50
2023/11/11 10:22:44;;;;;;;4.07;1.58;;;9.00;99.90;;;;;;4975829;28;20080;-46
2023/11/11 10:25:12;;;;;;;4.13;2.10;;;9.10;99.90;;;;;;5062341;28;20033;-45
2023/11/11 10:27:38;;;;;;;3.53;1.52;;;9.20;99.90;;;;;;5046938;28;20014;-45
2023/11/11 10:30:05;;;;;;;1.58;1.45;;;9.20;99.90;;;;;;4970842;28;20019;-45
2023/11/11 10:32:30;;;;;;;2.80;1.40;;;9.70;99.90;;;;;;4979370;28;20026;-45
2023/11/11 10:34:58;;;;;;;2.50;1.77;;;10.00;99.90;;;;;;4990064;28;20390;-45
2023/11/11 10:37:24;;;;;;;3.25;1.50;;;10.10;99.90;;;;;;4989973;28;20027;-47
2023/11/11 10:39:51;;;;;;;4.65;2.00;;;10.10;99.90;;;;;;4989658;28;20414;-45
2023/11/11 10:42:17;;;;;;;1.67;1.52;;;10.10;99.90;;;;;;4980086;28;20035;-55
2023/11/11 10:44:43;;;;;;;1.60;1.42;;;10.00;99.90;;;;;;5049280;28;20048;-49
2023/11/11 10:47:09;;;;;;;1.15;1.10;;;9.90;99.90;;;;;;5012247;28;20088;-61
2023/11/11 10:49:36;;;;;;;2.20;1.60;;;10.20;99.90;;;;;;5059169;28;20450;-60
2023/11/11 10:52:02;;;;;;;2.30;1.45;;;10.30;99.90;;;;;;5053311;28;20471;-54
2023/11/11 10:54:30;;;;;;;4.57;1.55;;;10.60;99.90;;;;;;5036466;28;20413;-49
2023/11/11 10:56:58;;;;;;;2.97;1.75;;;10.50;99.90;;;;;;4971205;28;20486;-49
2023/11/11 10:59:26;;;;;;;3.60;1.80;;;10.40;99.90;;;;;;5017045;28;20035;-49
2023/11/11 11:01:54;;;;;;;2.33;1.42;;;10.20;99.90;;;;;;5070861;28;20219;-49
2023/11/11 11:04:27;;;;;;;4.28;2.00;;;10.10;99.90;;;;;;5070958;28;20013;-45
2023/11/11 11:06:59;;;;;;;2.55;1.50;;;10.00;99.90;;;;;;4986871;28;20042;-45
2023/11/11 11:09:38;;;;;;;2.08;1.30;;;10.00;99.90;;;;;;4989505;28;20114;-45
2023/11/11 11:12:21;;;;;;;3.28;1.67;;;10.10;99.90;;;;;;4977259;28;20035;-44
2023/11/11 11:14:52;;;;;;;3.22;1.50;;;10.00;99.90;;;;;;4973660;28;20030;-45
2023/11/11 11:17:18;;;;;;;2.03;1.60;;;10.00;99.90;;;;;;4968630;28;20099;-46
2023/11/11 11:20:00;;;;;;;3.63;1.90;;;10.00;99.90;;;;;;5042976;28;20080;-46
2023/11/11 11:22:39;;;;;;;3.88;1.55;;;9.90;99.90;;;;;;4978189;28;20031;-45
2023/11/11 11:25:44;;;;;;;24.08;14.00;;;9.80;99.90;;;;;;4989718;28;20490;-46
2023/11/11 11:28:09;;;;;;;8.98;5.28;;;9.80;99.90;;;;;;4987893;28;20505;-46
2023/11/11 11:30:39;;;;;;;7.78;3.90;;;9.80;99.90;;;;;;4971847;28;20028;-51
2023/11/11 11:33:06;;;;;;;1.60;1.33;;;9.90;99.90;;;;;;4969056;28;20031;-51
2023/11/11 11:35:38;;;;;;;1.38;1.27;;;9.90;99.90;;;;;;4969754;28;20023;-55
2023/11/11 11:38:07;;;;;;;2.72;1.38;;;9.80;99.90;;;;;;5022261;28;20122;-48
2023/11/11 11:40:36;;;;;;;2.38;1.40;;;9.80;99.90;;;;;;4969979;28;20461;-55
2023/11/11 11:43:09;;;;;;;2.55;0.90;;;9.80;99.90;;;;;;4969745;28;20029;-59
2023/11/11 11:45:37;;;;;;;2.50;1.33;;;9.80;99.90;;;;;;4995710;28;20016;-58
2023/11/11 11:48:09;;;;;;;2.03;0.95;;;9.80;99.90;;;;;;4968844;28;20053;-58
2023/11/11 11:50:35;;;;;;;1.30;1.20;;;9.90;99.90;;;;;;4967706;28;20486;-46
2023/11/11 11:53:01;;;;;;;1.10;1.00;;;9.90;99.90;;;;;;4979694;28;20292;-49
2023/11/11 11:55:38;;;;;;;1.10;1.00;;;10.00;99.90;;;;;;5025386;28;20017;-50
2023/11/11 11:58:03;;;;;;;1.92;1.38;;;9.90;99.90;;;;;;5069590;28;20027;-50
2023/11/11 12:00:29;;;;;;;4.53;1.25;;;9.90;99.90;;;;;;5034977;28;20102;-54
2023/11/11 12:02:56;;;;;;;1.95;1.40;;;9.90;99.90;;;;;;4968970;28;20102;-59
2023/11/11 12:05:23;;;;;;;1.77;1.20;;;9.90;99.90;;;;;;4982935;28;20068;-56
2023/11/11 12:07:49;;;;;;;1.63;1.40;;;10.00;99.90;;;;;;4988540;28;20486;-56
2023/11/11 12:10:15;;;;;;;2.33;1.50;;;10.00;99.90;;;;;;4988726;28;20371;-61
2023/11/11 12:12:40;;;;;;;1.27;1.17;;;10.10;99.90;;;;;;4980350;28;20030;-54
2023/11/11 12:15:14;;;;;;;2.97;1.50;;;10.10;99.90;;;;;;4969086;28;20504;-57
2023/11/11 12:17:42;;;;;;;5.00;1.23;;;10.10;99.90;;;;;;4969904;28;20512;-54
2023/11/11 12:20:14;;;;;;;1.00;0.90;;;10.00;99.90;;;;;;4969251;28;20712;-51
2023/11/11 12:22:47;;;;;;;2.88;1.50;;;9.90;99.90;;;;;;4968979;28;20417;-58
2023/11/11 12:25:13;;;;;;;2.88;1.45;;;9.90;99.90;;;;;;4967811;28;20111;-54
2023/11/11 12:27:40;;;;;;;3.67;1.10;;;10.00;99.90;;;;;;5021151;28;20384;-61
2023/11/11 12:30:20;;;;;;;1.50;1.27;;;9.90;99.90;;;;;;5070487;28;20078;-60
2023/11/11 12:33:02;;;;;;;4.20;1.40;;;9.80;99.90;;;;;;5038325;28;20121;-60
2023/11/11 12:35:28;;;;;;;2.70;1.17;;;9.90;99.90;;;;;;4971866;28;20035;-57
2023/11/11 12:37:54;;;;;;;3.28;1.15;;;9.90;99.90;;;;;;4971842;28;20027;-62
2023/11/11 12:40:30;;;;;;;1.70;1.15;;;9.90;99.90;;;;;;4974711;28;20394;-62
2023/11/11 12:42:56;;;;;;;5.43;1.58;;;9.90;99.90;;;;;;4990955;28;20481;-48
2023/11/11 12:45:21;;;;;;;1.58;1.13;;;9.90;99.90;;;;;;4990637;28;20062;-48
2023/11/11 12:47:54;;;;;;;0.95;0.85;;;9.90;99.90;;;;;;4991046;28;20505;-48
2023/11/11 12:50:32;;;;;;;1.98;1.10;;;9.80;99.90;;;;;;4982666;28;20027;-49
2023/11/11 12:53:10;;;;;;;1.20;1.10;;;9.80;99.90;;;;;;4952515;29;20027;-48